createdAt,value
2023-02-27T00:00:40.465Z,102027.22
2023-02-27T00:03:10.714Z,102026.09
2023-02-27T00:05:44.120Z,102036.44
2023-02-27T00:08:14.387Z,102031.22
2023-02-27T00:10:44.661Z,102034.06
2023-02-27T00:13:14.999Z,102035.81
2023-02-27T00:15:50.551Z,102032.41
2023-02-27T00:18:20.656Z,102036.63
2023-02-27T00:20:50.870Z,102034.94
2023-02-27T00:23:21.080Z,102039.41
2023-02-27T00:25:52.443Z,102050.56
2023-02-27T00:28:23.797Z,102055.84
2023-02-27T00:30:54.264Z,102057.63
2023-02-27T00:33:24.552Z,102049.47
2023-02-27T00:35:59.314Z,102070.53
2023-02-27T00:38:29.567Z,102066.22
2023-02-27T00:40:59.806Z,102063.63
2023-02-27T00:43:30.021Z,102071.47
2023-02-27T00:46:00.221Z,102073.25
2023-02-27T00:48:30.318Z,102075.84
2023-02-27T00:51:00.424Z,102079.94
2023-02-27T00:53:30.598Z,102080.78
2023-02-27T00:56:00.807Z,102073.75
2023-02-27T00:58:31.116Z,102075.75
2023-02-27T01:01:01.279Z,102076.31
2023-02-27T01:03:31.527Z,102085.16
2023-02-27T01:06:02.052Z,102089.25
2023-02-27T01:08:32.228Z,102080.34
2023-02-27T01:11:02.350Z,102081.38
2023-02-27T01:13:32.563Z,102081.94
2023-02-27T01:16:02.937Z,102079.31
2023-02-27T01:18:33.180Z,102080.19
2023-02-27T01:21:03.452Z,102085.47
2023-02-27T01:23:33.637Z,102081.16
2023-02-27T01:26:03.946Z,102094.97
2023-02-27T01:28:34.467Z,102089.81
2023-02-27T01:31:04.931Z,102083.78
2023-02-27T01:33:35.534Z,102085.47
2023-02-27T01:36:06.007Z,102100.16
2023-02-27T01:38:36.190Z,102094.97
2023-02-27T01:41:07.605Z,102105.38
2023-02-27T01:44:00.417Z,102108.03
2023-02-27T01:46:31.620Z,102107.06
2023-02-27T01:49:24.250Z,102109.66
2023-02-27T01:52:03.351Z,102111.34
2023-02-27T01:54:37.988Z,102105.00
2023-02-27T01:57:09.921Z,102121.44
2023-02-27T01:59:42.648Z,102110.16
2023-02-27T02:02:20.720Z,102110.69
2023-02-27T02:04:59.556Z,102120.19
2023-02-27T02:07:30.179Z,102117.63
2023-02-27T02:10:01.862Z,102119.38
2023-02-27T02:12:35.953Z,102128.81
2023-02-27T02:15:06.770Z,102125.47
2023-02-27T02:17:45.965Z,102135.66
2023-02-27T02:21:01.575Z,102134.69
2023-02-27T02:24:11.853Z,102138.22
2023-02-27T02:26:56.809Z,102132.06
2023-02-27T02:29:38.749Z,102138.16
2023-02-27T02:32:21.668Z,102138.16
2023-02-27T02:35:17.127Z,102145.06
2023-02-27T02:38:15.741Z,102136.38
2023-02-27T02:41:08.737Z,102145.88
2023-02-27T02:44:02.776Z,102137.09
2023-02-27T02:46:49.527Z,102149.13
2023-02-27T02:49:28.803Z,102150.03
2023-02-27T02:52:48.074Z,102152.59
2023-02-27T02:55:23.134Z,102167.84
2023-02-27T02:58:14.416Z,102169.63
2023-02-27T03:00:52.968Z,102171.31
2023-02-27T03:03:29.914Z,102173.16
2023-02-27T03:06:10.728Z,102177.22
2023-02-27T03:08:53.869Z,102183.25
2023-02-27T03:11:30.698Z,102189.97
2023-02-27T03:14:11.217Z,102189.91
2023-02-27T03:16:46.593Z,102191.75
2023-02-27T03:19:37.419Z,102198.59
2023-02-27T03:22:15.493Z,102197.94
2023-02-27T03:24:50.688Z,102199.81
2023-02-27T03:27:22.924Z,102217.09
2023-02-27T03:29:55.649Z,102219.53
2023-02-27T03:32:42.955Z,102208.28
2023-02-27T03:35:14.038Z,102217.78
2023-02-27T03:37:59.450Z,102214.38
2023-02-27T03:40:33.549Z,102210.22
2023-02-27T03:43:31.173Z,102207.56
2023-02-27T03:46:12.870Z,102214.53
2023-02-27T03:48:44.911Z,102209.25
2023-02-27T03:51:18.491Z,102216.22
2023-02-27T03:54:07.374Z,102230.03
2023-02-27T03:56:50.812Z,102223.22
2023-02-27T03:59:20.952Z,102220.59
2023-02-27T04:01:52.428Z,102224.03
2023-02-27T04:04:23.520Z,102228.34
2023-02-27T04:07:24.663Z,102236.88
2023-02-27T04:10:07.202Z,102238.63
2023-02-27T04:12:58.860Z,102244.72
2023-02-27T04:15:37.781Z,102242.97
2023-02-27T04:18:26.770Z,102238.72
2023-02-27T04:21:25.834Z,102241.38
2023-02-27T04:23:56.184Z,102237.13
2023-02-27T04:26:43.046Z,102234.41
2023-02-27T04:29:29.483Z,102240.41
2023-02-27T04:32:02.763Z,102246.41
2023-02-27T04:34:42.552Z,102243.75
2023-02-27T04:37:26.305Z,102247.25
2023-02-27T04:40:12.741Z,102245.53
2023-02-27T04:42:48.597Z,102253.31
2023-02-27T04:45:23.704Z,102250.75
2023-02-27T04:48:04.129Z,102253.31
2023-02-27T04:50:57.764Z,102247.31
2023-02-27T04:53:41.200Z,102257.56
2023-02-27T04:56:17.864Z,102260.22
2023-02-27T04:58:53.744Z,102262.91
2023-02-27T05:01:30.763Z,102262.56
2023-02-27T05:04:01.904Z,102269.88
2023-02-27T05:06:37.584Z,102262.66
2023-02-27T05:09:13.403Z,102274.78
2023-02-27T05:11:59.060Z,102272.09
2023-02-27T05:14:35.538Z,102274.03
2023-02-27T05:17:10.648Z,102281.75
2023-02-27T05:19:43.940Z,102291.22
2023-02-27T05:22:26.958Z,102290.44
2023-02-27T05:25:00.645Z,102290.47
2023-02-27T05:27:42.546Z,102293.78
2023-02-27T05:30:25.551Z,102297.31
2023-02-27T05:33:15.962Z,102300.69
2023-02-27T05:35:51.662Z,102309.19
2023-02-27T05:38:28.007Z,102311.75
2023-02-27T05:41:20.187Z,102315.94
2023-02-27T05:43:54.390Z,102319.22
2023-02-27T05:46:30.390Z,102323.38
2023-02-27T05:49:11.642Z,102323.47
2023-02-27T05:51:46.558Z,102332.25
2023-02-27T05:54:52.341Z,102327.13
2023-02-27T05:57:44.222Z,102339.28
2023-02-27T06:00:30.153Z,102348.06
2023-02-27T06:03:04.335Z,102343.66
2023-02-27T06:05:37.329Z,102348.94
2023-02-27T06:08:08.333Z,102358.50
2023-02-27T06:10:39.830Z,102362.91
2023-02-27T06:13:10.226Z,102359.56
2023-02-27T06:15:40.541Z,102365.81
2023-02-27T06:18:12.799Z,102372.03
2023-02-27T06:20:44.536Z,102362.63
2023-02-27T06:23:14.731Z,102362.53
2023-02-27T06:25:45.041Z,102375.81
2023-02-27T06:28:15.264Z,102372.34
2023-02-27T06:30:46.431Z,102386.41
2023-02-27T06:33:16.817Z,102376.13
2023-02-27T06:35:50.177Z,102380.63
2023-02-27T06:38:20.613Z,102386.75
2023-02-27T06:40:53.449Z,102390.28
2023-02-27T06:43:23.741Z,102391.41
2023-02-27T06:45:54.935Z,102394.31
2023-02-27T06:48:25.228Z,102396.16
2023-02-27T06:50:56.596Z,102400.66
2023-02-27T06:53:26.912Z,102399.06
2023-02-27T06:55:57.022Z,102404.50
2023-02-27T06:58:27.138Z,102399.34
2023-02-27T07:01:00.476Z,102414.16
2023-02-27T07:03:30.995Z,102412.44
2023-02-27T07:06:05.887Z,102420.50
2023-02-27T07:08:36.210Z,102404.91
2023-02-27T07:11:06.370Z,102417.53
2023-02-27T07:13:36.918Z,102421.31
2023-02-27T07:16:07.822Z,102429.31
2023-02-27T07:18:38.119Z,102417.41
2023-02-27T07:21:08.305Z,102426.41
2023-02-27T07:23:38.681Z,102438.78
2023-02-27T07:26:08.909Z,102438.16
2023-02-27T07:28:39.013Z,102439.25
2023-02-27T07:31:09.213Z,102445.75
2023-02-27T07:33:39.310Z,102440.78
2023-02-27T07:36:09.686Z,102437.56
2023-02-27T07:38:39.781Z,102453.13
2023-02-27T07:41:21.181Z,102444.75
2023-02-27T07:43:59.599Z,102442.47
2023-02-27T07:46:30.188Z,102440.81
2023-02-27T07:49:00.644Z,102454.69
2023-02-27T07:51:31.070Z,102455.75
2023-02-27T07:54:01.480Z,102454.94
2023-02-27T07:56:31.743Z,102454.13
2023-02-27T07:59:02.082Z,102465.47
2023-02-27T08:01:32.218Z,102460.25
2023-02-27T08:04:02.456Z,102456.75
2023-02-27T08:06:32.667Z,102462.97
2023-02-27T08:09:03.159Z,102457.94
2023-02-27T08:11:33.357Z,102457.66
2023-02-27T08:14:03.726Z,102467.63
2023-02-27T08:16:33.999Z,102470.72
2023-02-27T08:19:04.312Z,102478.06
2023-02-27T08:21:34.492Z,102466.25
2023-02-27T08:24:04.655Z,102467.44
2023-02-27T08:26:35.053Z,102477.09
2023-02-27T08:29:05.301Z,102475.34
2023-02-27T08:31:35.866Z,102479.13
2023-02-27T08:34:10.902Z,102486.56
2023-02-27T08:36:41.353Z,102496.59
2023-02-27T08:39:11.819Z,102488.09
2023-02-27T08:41:42.092Z,102493.59
2023-02-27T08:44:13.112Z,102497.94
2023-02-27T08:46:43.295Z,102505.00
2023-02-27T08:49:14.278Z,102506.78
2023-02-27T08:51:44.428Z,102504.13
2023-02-27T08:54:14.778Z,102512.91
2023-02-27T08:56:45.282Z,102508.69
2023-02-27T08:59:15.875Z,102519.34
2023-02-27T09:01:46.084Z,102518.81
2023-02-27T09:04:16.431Z,102517.41
2023-02-27T09:06:47.008Z,102522.88
2023-02-27T09:09:17.124Z,102528.81
2023-02-27T09:11:47.409Z,102528.13
2023-02-27T09:14:18.230Z,102531.78
2023-02-27T09:16:48.412Z,102535.19
2023-02-27T09:19:18.656Z,102534.59
2023-02-27T09:21:48.844Z,102542.63
2023-02-27T09:24:20.777Z,102534.22
2023-02-27T09:26:51.978Z,102541.97
2023-02-27T09:29:24.127Z,102544.66
2023-02-27T09:31:57.425Z,102541.34
2023-02-27T09:34:33.916Z,102548.72
2023-02-27T09:37:04.121Z,102546.69
2023-02-27T09:39:34.316Z,102540.75
2023-02-27T09:42:16.273Z,102545.56
2023-02-27T09:44:56.118Z,102544.69
2023-02-27T09:47:38.644Z,102545.44
2023-02-27T09:50:34.103Z,102542.91
2023-02-27T09:53:14.166Z,102553.38
2023-02-27T09:55:46.138Z,102546.81
2023-02-27T09:58:53.398Z,102555.41
2023-02-27T10:01:28.709Z,102555.84
2023-02-27T10:04:19.273Z,102554.78
2023-02-27T10:07:23.703Z,102553.78
2023-02-27T10:10:16.020Z,102546.88
2023-02-27T10:12:54.885Z,102562.41
2023-02-27T10:15:39.191Z,102558.72
2023-02-27T10:18:55.926Z,102566.97
2023-02-27T10:21:34.217Z,102578.59
2023-02-27T10:24:07.858Z,102584.41
2023-02-27T10:26:41.845Z,102588.56
2023-02-27T10:29:24.890Z,102586.88
2023-02-27T10:32:12.342Z,102581.91
2023-02-27T10:34:44.626Z,102585.13
2023-02-27T10:37:18.534Z,102584.22
2023-02-27T10:39:53.402Z,102585.66
2023-02-27T10:42:27.963Z,102585.84
2023-02-27T10:44:58.246Z,102583.78
2023-02-27T10:47:28.540Z,102594.88
2023-02-27T10:50:00.528Z,102593.69
2023-02-27T10:52:31.370Z,102592.63
2023-02-27T10:55:18.336Z,102598.19
2023-02-27T10:57:48.574Z,102596.09
2023-02-27T11:00:44.243Z,102596.91
2023-02-27T11:03:21.523Z,102597.66
2023-02-27T11:06:00.727Z,102582.78
2023-02-27T11:08:32.671Z,102598.38
2023-02-27T11:11:09.667Z,102605.44
2023-02-27T11:13:44.980Z,102590.22
2023-02-27T11:16:22.784Z,102601.41
2023-02-27T11:18:54.505Z,102595.94
2023-02-27T11:21:29.909Z,102596.41
2023-02-27T11:24:07.920Z,102597.78
2023-02-27T11:26:39.581Z,102595.03
2023-02-27T11:29:18.062Z,102594.63
2023-02-27T11:32:02.968Z,102600.41
2023-02-27T11:34:55.565Z,102594.66
2023-02-27T11:37:37.067Z,102582.44
2023-02-27T11:40:10.162Z,102592.13
2023-02-27T11:42:51.058Z,102583.38
2023-02-27T11:46:19.010Z,102594.09
2023-02-27T11:48:18.590Z,102594.25
2023-02-27T11:51:10.546Z,102587.19
2023-02-27T11:53:52.835Z,102599.59
2023-02-27T11:56:36.264Z,102590.47
2023-02-27T11:59:06.639Z,102595.63
2023-02-27T12:01:42.213Z,102596.41
2023-02-27T12:04:17.075Z,102605.63
2023-02-27T12:06:54.470Z,102602.69
2023-02-27T12:09:38.988Z,102611.09
2023-02-27T12:12:21.829Z,102600.63
2023-02-27T12:15:04.380Z,102609.69
2023-02-27T12:17:45.140Z,102617.19
2023-02-27T12:20:38.122Z,102617.13
2023-02-27T12:23:24.140Z,102615.38
2023-02-27T12:26:04.132Z,102616.66
2023-02-27T12:28:41.935Z,102620.31
2023-02-27T12:31:24.576Z,102613.97
2023-02-27T12:34:19.227Z,102621.19
2023-02-27T12:36:49.766Z,102618.19
2023-02-27T12:39:23.689Z,102621.25
2023-02-27T12:42:26.419Z,102614.75
2023-02-27T12:44:59.972Z,102627.22
2023-02-27T12:47:48.341Z,102631.00
2023-02-27T12:50:24.381Z,102632.63
2023-02-27T12:53:34.392Z,102626.91
2023-02-27T12:56:13.362Z,102631.09
2023-02-27T12:59:11.837Z,102629.38
2023-02-27T13:01:47.765Z,102641.72
2023-02-27T13:04:44.348Z,102641.34
2023-02-27T13:07:53.621Z,102636.13
2023-02-27T13:10:48.328Z,102640.50
2023-02-27T13:13:40.454Z,102652.00
2023-02-27T13:16:17.457Z,102649.34
2023-02-27T13:18:54.975Z,102649.72
2023-02-27T13:21:25.192Z,102656.84
2023-02-27T13:24:06.059Z,102658.66
2023-02-27T13:26:46.035Z,102644.78
2023-02-27T13:29:18.774Z,102652.72
2023-02-27T13:32:05.591Z,102654.66
2023-02-27T13:34:44.064Z,102652.97
2023-02-27T13:37:15.306Z,102655.84
2023-02-27T13:39:46.794Z,102666.28
2023-02-27T13:42:31.322Z,102658.72
2023-02-27T13:45:25.706Z,102661.59
2023-02-27T13:47:56.954Z,102654.03
2023-02-27T13:50:27.237Z,102666.88
2023-02-27T13:53:08.558Z,102660.13
2023-02-27T13:55:40.192Z,102663.72
2023-02-27T13:58:18.484Z,102657.56
2023-02-27T14:00:57.747Z,102646.84
2023-02-27T14:03:32.235Z,102662.81
2023-02-27T14:06:05.246Z,102663.69
2023-02-27T14:08:50.143Z,102661.38
2023-02-27T14:11:23.022Z,102668.09
2023-02-27T14:13:54.975Z,102675.22
2023-02-27T14:16:40.184Z,102672.38
2023-02-27T14:19:16.241Z,102680.38
2023-02-27T14:22:01.458Z,102668.81
2023-02-27T14:25:06.812Z,102668.41
2023-02-27T14:27:48.782Z,102665.97
2023-02-27T14:30:42.689Z,102677.72
2023-02-27T14:33:33.370Z,102666.84
2023-02-27T14:36:31.579Z,102677.19
2023-02-27T14:39:04.343Z,102686.06
2023-02-27T14:41:56.526Z,102687.16
2023-02-27T14:44:29.353Z,102687.88
2023-02-27T14:47:04.233Z,102676.84
2023-02-27T14:49:36.264Z,102672.19
2023-02-27T14:52:12.669Z,102682.31
2023-02-27T14:54:45.086Z,102683.06
2023-02-27T14:57:21.592Z,102674.38
2023-02-27T14:59:53.395Z,102689.56
2023-02-27T15:02:27.336Z,102687.88
2023-02-27T15:05:03.766Z,102687.91
2023-02-27T15:07:35.048Z,102678.34
2023-02-27T15:10:08.443Z,102689.09
2023-02-27T15:12:39.843Z,102686.75
2023-02-27T15:15:16.705Z,102688.81
2023-02-27T15:17:47.253Z,102694.28
2023-02-27T15:20:31.316Z,102694.19
2023-02-27T15:23:20.150Z,102698.25
2023-02-27T15:25:50.313Z,102702.34
2023-02-27T15:28:26.896Z,102697.50
2023-02-27T15:30:58.050Z,102698.78
2023-02-27T15:33:30.788Z,102696.66
2023-02-27T15:36:01.804Z,102686.44
2023-02-27T15:38:35.608Z,102709.25
2023-02-27T15:41:06.243Z,102704.50
2023-02-27T15:43:36.922Z,102699.84
2023-02-27T15:46:07.687Z,102713.88
2023-02-27T15:48:38.017Z,102709.19
2023-02-27T15:51:09.890Z,102714.69
2023-02-27T15:53:48.945Z,102721.94
2023-02-27T15:56:24.705Z,102711.56
2023-02-27T15:59:00.230Z,102723.31
2023-02-27T16:01:33.138Z,102729.25
2023-02-27T16:04:20.842Z,102742.78
2023-02-27T16:07:17.259Z,102735.28
2023-02-27T16:09:52.028Z,102741.16
2023-02-27T16:12:31.287Z,102742.09
2023-02-27T16:15:27.982Z,102741.25
2023-02-27T16:18:04.778Z,102746.75
2023-02-27T16:20:43.271Z,102755.56
2023-02-27T16:23:24.152Z,102748.59
2023-02-27T16:26:02.634Z,102755.84
2023-02-27T16:28:44.627Z,102755.94
2023-02-27T16:31:41.798Z,102760.34
2023-02-27T16:34:14.821Z,102751.13
2023-02-27T16:36:59.808Z,102753.97
2023-02-27T16:39:31.171Z,102748.28
2023-02-27T16:42:01.958Z,102736.44
2023-02-27T16:44:32.122Z,102758.47
2023-02-27T16:47:02.356Z,102747.44
2023-02-27T16:49:33.652Z,102751.16
2023-02-27T16:52:06.048Z,102746.28
2023-02-27T16:54:36.914Z,102762.25
2023-02-27T16:57:07.093Z,102756.41
2023-02-27T16:59:42.217Z,102773.34
2023-02-27T17:02:15.317Z,102771.16
2023-02-27T17:04:48.103Z,102774.06
2023-02-27T17:07:18.771Z,102771.22
2023-02-27T17:09:49.088Z,102778.31
2023-02-27T17:12:21.221Z,102781.56
2023-02-27T17:14:51.512Z,102773.44
2023-02-27T17:17:21.714Z,102773.94
2023-02-27T17:19:51.844Z,102770.31
2023-02-27T17:22:22.017Z,102783.88
2023-02-27T17:24:52.239Z,102779.28
2023-02-27T17:27:22.479Z,102791.16
2023-02-27T17:29:52.962Z,102777.75
2023-02-27T17:32:23.327Z,102774.63
2023-02-27T17:34:55.208Z,102788.31
2023-02-27T17:37:25.430Z,102785.34
2023-02-27T17:39:55.633Z,102786.72
2023-02-27T17:42:26.010Z,102793.38
2023-02-27T17:44:56.114Z,102784.13
2023-02-27T17:47:26.292Z,102789.81
2023-02-27T17:49:56.647Z,102797.56
2023-02-27T17:52:27.637Z,102798.13
2023-02-27T17:54:57.713Z,102803.91
2023-02-27T17:57:27.915Z,102804.28
2023-02-27T17:59:58.152Z,102798.09
2023-02-27T18:02:28.469Z,102802.03
2023-02-27T18:04:58.622Z,102805.06
2023-02-27T18:07:28.871Z,102817.75
2023-02-27T18:09:59.047Z,102808.00
2023-02-27T18:12:30.280Z,102816.25
2023-02-27T18:15:01.045Z,102828.16
2023-02-27T18:17:31.504Z,102826.75
2023-02-27T18:20:01.789Z,102829.00
2023-02-27T18:22:33.122Z,102843.47
2023-02-27T18:25:03.415Z,102840.78
2023-02-27T18:27:33.696Z,102836.97
2023-02-27T18:30:04.234Z,102841.22
2023-02-27T18:32:34.355Z,102846.28
2023-02-27T18:35:04.830Z,102839.16
2023-02-27T18:37:35.263Z,102839.88
2023-02-27T18:40:06.313Z,102840.50
2023-02-27T18:42:36.504Z,102847.59
2023-02-27T18:45:07.787Z,102838.47
2023-02-27T18:47:37.998Z,102849.53
2023-02-27T18:50:08.841Z,102848.50
2023-02-27T18:52:39.176Z,102850.88
2023-02-27T18:55:09.798Z,102855.13
2023-02-27T18:57:40.060Z,102850.41
2023-02-27T19:00:10.894Z,102870.13
2023-02-27T19:02:44.513Z,102859.38
2023-02-27T19:05:14.935Z,102863.34
2023-02-27T19:07:45.176Z,102874.25
2023-02-27T19:10:15.416Z,102867.75
2023-02-27T19:12:45.519Z,102878.13
2023-02-27T19:15:16.093Z,102867.28
2023-02-27T19:17:46.979Z,102867.91
2023-02-27T19:20:18.723Z,102877.47
2023-02-27T19:22:48.863Z,102874.63
2023-02-27T19:25:19.790Z,102870.88
2023-02-27T19:27:57.704Z,102886.59
2023-02-27T19:30:27.859Z,102887.09
2023-02-27T19:32:57.911Z,102880.94
2023-02-27T19:35:28.219Z,102881.38
2023-02-27T19:37:59.325Z,102891.66
2023-02-27T19:40:38.075Z,102887.91
2023-02-27T19:43:15.401Z,102892.75
2023-02-27T19:45:45.555Z,102901.19
2023-02-27T19:48:19.099Z,102906.38
2023-02-27T19:50:49.892Z,102902.56
2023-02-27T19:53:20.319Z,102905.44
2023-02-27T19:56:01.654Z,102900.28
2023-02-27T19:58:33.811Z,102913.72
2023-02-27T20:01:04.800Z,102897.72
2023-02-27T20:03:35.862Z,102911.56
2023-02-27T20:06:06.545Z,102913.72
2023-02-27T20:08:36.667Z,102897.84
2023-02-27T20:21:39.087Z,102910.84
2023-02-27T20:24:10.546Z,102919.38
2023-02-27T20:26:43.483Z,102919.38
2023-02-27T20:29:17.411Z,102918.47
2023-02-27T20:31:49.405Z,102905.44
2023-02-27T20:34:22.767Z,102919.44
2023-02-27T20:36:55.068Z,102912.44
2023-02-27T20:39:25.541Z,102919.84
2023-02-27T20:41:56.036Z,102922.50
2023-02-27T20:44:26.115Z,102926.53
2023-02-27T20:46:56.321Z,102931.97
2023-02-27T20:49:26.641Z,102924.88
2023-02-27T20:51:57.901Z,102921.22
2023-02-27T20:54:28.258Z,102923.06
2023-02-27T20:56:59.108Z,102928.63
2023-02-27T20:59:29.255Z,102937.13
2023-02-27T21:01:59.811Z,102930.00
2023-02-27T21:04:42.783Z,102934.31
2023-02-27T21:07:15.969Z,102931.47
2023-02-27T21:09:48.363Z,102932.16
2023-02-27T21:12:18.636Z,102932.72
2023-02-27T21:14:49.523Z,102924.34
2023-02-27T21:17:19.752Z,102929.38
2023-02-27T21:19:49.970Z,102916.53
2023-02-27T21:22:20.249Z,102914.84
2023-02-27T21:24:52.143Z,102931.53
2023-02-27T21:27:22.412Z,102933.00
2023-02-27T21:29:52.614Z,102939.03
2023-02-27T21:32:22.795Z,102939.03
2023-02-27T21:34:53.094Z,102941.19
2023-02-27T21:37:23.278Z,102937.63
2023-02-27T21:39:55.641Z,102937.81
2023-02-27T21:42:25.806Z,102942.06
2023-02-27T21:44:56.039Z,102942.06
2023-02-27T21:47:26.256Z,102946.44
2023-02-27T21:49:56.500Z,102952.25
2023-02-27T21:52:26.697Z,102945.19
2023-02-27T21:54:57.897Z,102951.13
2023-02-27T21:57:28.139Z,102947.69
2023-02-27T21:59:58.277Z,102945.88
2023-02-27T22:02:28.570Z,102948.06
2023-02-27T22:04:58.917Z,102939.25
2023-02-27T22:07:30.277Z,102949.81
2023-02-27T22:10:00.715Z,102947.81
2023-02-27T22:12:30.978Z,102943.25
2023-02-27T22:15:01.095Z,102938.06
2023-02-27T22:17:31.338Z,102945.81
2023-02-27T22:20:01.582Z,102942.06
2023-02-27T22:22:31.751Z,102949.56
2023-02-27T22:25:01.990Z,102950.31
2023-02-27T22:27:32.232Z,102950.81
2023-02-27T22:30:02.368Z,102955.13
2023-02-27T22:32:32.851Z,102943.88
2023-02-27T22:35:03.130Z,102929.78
2023-02-27T22:37:34.292Z,102946.25
2023-02-27T22:40:04.734Z,102934.69
2023-02-27T22:42:34.894Z,102945.72
2023-02-27T22:45:05.492Z,102939.59
2023-02-27T22:47:36.101Z,102942.16
2023-02-27T22:50:07.221Z,102936.84
2023-02-27T22:52:37.764Z,102935.16
2023-02-27T22:55:09.214Z,102947.09
2023-02-27T22:57:39.311Z,102952.22
2023-02-27T23:00:11.840Z,102945.78
2023-02-27T23:02:42.416Z,102941.09
2023-02-27T23:05:12.525Z,102947.53
2023-02-27T23:07:51.455Z,102947.41
2023-02-27T23:10:31.900Z,102948.09
2023-02-27T23:13:04.942Z,102935.66
2023-02-27T23:15:37.935Z,102949.34
2023-02-27T23:18:09.917Z,102939.69
2023-02-27T23:20:40.289Z,102940.31
2023-02-27T23:23:10.672Z,102945.56
2023-02-27T23:25:40.912Z,102952.16
2023-02-27T23:28:11.073Z,102952.72
2023-02-27T23:30:41.208Z,102946.47
2023-02-27T23:33:11.292Z,102947.38
2023-02-27T23:35:41.649Z,102931.47
2023-02-27T23:38:11.926Z,102934.91
2023-02-27T23:40:42.071Z,102936.47
2023-02-27T23:43:31.312Z,102939.94
2023-02-27T23:46:12.229Z,102941.59
2023-02-27T23:48:43.214Z,102936.06
2023-02-27T23:51:13.653Z,102938.50
2023-02-27T23:53:43.942Z,102931.25
2023-02-27T23:56:20.515Z,102933.94
2023-02-27T23:58:59.374Z,102940.06
